createdAt,value
2023-03-19T00:01:05.856Z,28.33
2023-03-19T00:03:07.422Z,23.33
2023-03-19T00:05:10.480Z,25.00
2023-03-19T00:07:12.520Z,26.33
2023-03-19T00:09:14.379Z,25.33
2023-03-19T00:11:17.461Z,29.67
2023-03-19T00:13:20.462Z,28.33
2023-03-19T00:15:22.144Z,17.00
2023-03-19T00:17:26.562Z,26.33
2023-03-19T00:19:28.622Z,22.67
2023-03-19T00:21:30.779Z,30.33
2023-03-19T00:23:32.382Z,26.33
2023-03-19T00:25:34.384Z,22.33
2023-03-19T00:27:38.269Z,22.00
2023-03-19T00:29:40.167Z,22.00
2023-03-19T00:31:43.289Z,24.00
2023-03-19T00:33:45.111Z,27.33
2023-03-19T00:35:47.187Z,18.67
2023-03-19T00:37:49.081Z,21.67
2023-03-19T00:39:50.723Z,23.33
2023-03-19T00:41:52.291Z,22.67
2023-03-19T00:43:56.941Z,23.00
2023-03-19T00:45:59.076Z,24.00
2023-03-19T00:48:00.797Z,19.00
2023-03-19T00:50:02.574Z,17.00
2023-03-19T00:52:04.693Z,15.33
2023-03-19T00:54:06.778Z,24.67
2023-03-19T00:56:08.701Z,25.33
2023-03-19T00:58:10.644Z,24.67
2023-03-19T01:02:16.633Z,14.33
2023-03-19T01:04:19.478Z,19.33
2023-03-19T01:06:21.302Z,26.33
2023-03-19T01:08:23.147Z,28.67
2023-03-19T01:10:25.153Z,19.00
2023-03-19T01:12:27.096Z,25.33
2023-03-19T01:14:29.203Z,32.00
2023-03-19T01:16:32.609Z,22.00
2023-03-19T01:18:34.736Z,22.33
2023-03-19T01:20:38.036Z,23.00
2023-03-19T01:22:41.635Z,23.67
2023-03-19T01:24:43.660Z,27.00
2023-03-19T01:26:45.701Z,23.00
2023-03-19T01:28:47.885Z,22.00
2023-03-19T01:30:49.856Z,32.00
2023-03-19T01:32:53.495Z,33.00
2023-03-19T01:34:55.322Z,33.00
2023-03-19T01:36:57.404Z,26.33
2023-03-19T01:39:01.368Z,22.67
2023-03-19T01:41:04.323Z,33.33
2023-03-19T01:43:16.670Z,26.00
2023-03-19T01:45:35.081Z,28.33
2023-03-19T01:47:41.225Z,27.00
2023-03-19T01:49:47.394Z,31.33
2023-03-19T01:51:49.289Z,27.67
2023-03-19T01:53:55.327Z,27.33
2023-03-19T01:56:02.620Z,25.00
2023-03-19T01:58:06.694Z,27.00
2023-03-19T02:00:10.326Z,16.33
2023-03-19T02:02:21.747Z,21.33
2023-03-19T02:04:26.867Z,31.00
2023-03-19T02:06:31.157Z,18.33
2023-03-19T02:08:34.204Z,23.33
2023-03-19T02:10:37.311Z,27.33
2023-03-19T02:12:39.526Z,23.67
2023-03-19T02:14:42.258Z,21.67
2023-03-19T02:16:44.669Z,15.00
2023-03-19T02:18:47.511Z,20.00
2023-03-19T02:20:54.952Z,22.67
2023-03-19T02:23:05.555Z,17.00
2023-03-19T02:25:13.320Z,17.67
2023-03-19T02:27:16.525Z,16.00
2023-03-19T02:29:18.350Z,20.67
2023-03-19T02:31:20.644Z,21.00
2023-03-19T02:33:22.512Z,20.00
2023-03-19T02:35:24.826Z,16.33
2023-03-19T02:37:31.206Z,19.00
2023-03-19T02:39:43.997Z,29.67
2023-03-19T02:41:46.959Z,25.33
2023-03-19T02:43:50.595Z,25.67
2023-03-19T02:45:52.472Z,30.00
2023-03-19T02:47:54.496Z,23.67
2023-03-19T02:49:58.536Z,27.00
2023-03-19T02:52:00.271Z,26.33
2023-03-19T02:54:01.856Z,25.00
2023-03-19T02:56:04.259Z,16.00
2023-03-19T02:58:07.418Z,24.00
2023-03-19T03:00:13.064Z,22.00
2023-03-19T03:02:15.057Z,20.67
2023-03-19T03:04:16.781Z,25.00
2023-03-19T03:06:18.422Z,17.33
2023-03-19T03:08:20.204Z,20.33
2023-03-19T03:10:22.354Z,21.67
2023-03-19T03:12:24.373Z,25.00
2023-03-19T03:14:26.734Z,21.00
2023-03-19T03:16:32.430Z,21.67
2023-03-19T03:18:35.547Z,20.67
2023-03-19T03:20:37.514Z,21.33
2023-03-19T03:22:41.309Z,23.33
2023-03-19T03:24:45.819Z,21.00
2023-03-19T03:26:47.493Z,20.67
2023-03-19T03:28:49.570Z,20.67
2023-03-19T03:30:51.258Z,22.33
2023-03-19T03:32:54.305Z,23.33
2023-03-19T03:35:00.794Z,22.33
2023-03-19T03:37:04.025Z,22.33
2023-03-19T03:39:06.055Z,14.67
2023-03-19T03:41:08.679Z,18.67
2023-03-19T03:43:10.673Z,23.00
2023-03-19T03:45:14.040Z,21.67
2023-03-19T03:47:16.106Z,17.67
2023-03-19T03:49:19.283Z,20.67
2023-03-19T03:51:21.061Z,11.33
2023-03-19T03:53:22.670Z,14.00
2023-03-19T03:55:24.328Z,15.00
2023-03-19T03:57:26.587Z,21.33
2023-03-19T03:59:31.417Z,18.00
2023-03-19T04:01:33.576Z,18.33
2023-03-19T04:03:35.281Z,19.00
2023-03-19T04:05:38.311Z,19.33
2023-03-19T04:07:39.871Z,23.00
2023-03-19T04:09:42.048Z,24.00
2023-03-19T04:11:44.108Z,24.33
2023-03-19T04:13:45.772Z,19.67
2023-03-19T04:15:48.415Z,16.33
2023-03-19T04:17:51.090Z,16.00
2023-03-19T04:19:53.124Z,28.00
2023-03-19T04:21:56.200Z,17.00
2023-03-19T04:23:59.223Z,24.00
2023-03-19T04:26:02.242Z,20.33
2023-03-19T04:28:04.155Z,23.67
2023-03-19T04:30:06.430Z,30.33
2023-03-19T04:32:08.588Z,27.67
2023-03-19T04:34:10.410Z,17.67
2023-03-19T04:36:13.026Z,25.00
2023-03-19T04:38:16.774Z,24.67
2023-03-19T04:40:18.428Z,21.33
2023-03-19T04:42:20.313Z,23.00
2023-03-19T04:44:21.980Z,24.33
2023-03-19T04:46:24.022Z,18.67
2023-03-19T04:48:26.198Z,18.00
2023-03-19T04:50:28.779Z,22.00
2023-03-19T04:52:30.629Z,29.00
2023-03-19T04:54:34.289Z,16.67
2023-03-19T04:56:35.848Z,22.00
2023-03-19T04:58:38.768Z,23.00
2023-03-19T05:00:41.966Z,18.33
2023-03-19T05:02:43.811Z,18.67
2023-03-19T05:04:45.350Z,13.33
2023-03-19T05:06:46.934Z,16.67
2023-03-19T05:08:48.742Z,13.33
2023-03-19T05:10:53.575Z,21.00
2023-03-19T05:12:55.348Z,23.33
2023-03-19T05:14:57.292Z,18.67
2023-03-19T05:16:59.549Z,16.67
2023-03-19T05:19:01.838Z,19.67
2023-03-19T05:21:03.697Z,24.33
2023-03-19T05:23:05.945Z,28.00
2023-03-19T05:25:08.111Z,22.33
2023-03-19T05:27:11.593Z,20.33
2023-03-19T05:29:13.201Z,23.33
2023-03-19T05:31:14.943Z,24.67
2023-03-19T05:33:17.143Z,22.67
2023-03-19T05:35:18.959Z,27.33
2023-03-19T05:37:20.905Z,25.67
2023-03-19T05:39:22.713Z,24.67
2023-03-19T05:41:24.302Z,17.67
2023-03-19T05:43:29.616Z,18.33
2023-03-19T05:45:31.433Z,22.67
2023-03-19T05:47:33.334Z,18.67
2023-03-19T05:49:37.436Z,32.00
2023-03-19T05:51:39.455Z,26.33
2023-03-19T05:53:41.079Z,21.33
2023-03-19T05:55:43.219Z,25.00
2023-03-19T05:57:45.628Z,29.67
2023-03-19T05:59:48.617Z,27.33
2023-03-19T06:01:50.345Z,24.00
2023-03-19T06:03:52.227Z,23.00
2023-03-19T06:05:53.834Z,20.33
2023-03-19T06:07:55.962Z,18.00
2023-03-19T06:09:57.943Z,19.67
2023-03-19T06:12:00.312Z,21.33
2023-03-19T06:14:02.678Z,19.00
2023-03-19T06:16:07.261Z,23.67
2023-03-19T06:18:09.115Z,23.67
2023-03-19T06:20:11.936Z,20.33
2023-03-19T06:22:13.792Z,29.00
2023-03-19T06:24:15.470Z,28.00
2023-03-19T06:26:17.096Z,20.33
2023-03-19T06:28:18.945Z,29.00
2023-03-19T06:30:20.976Z,28.00
2023-03-19T06:32:24.454Z,24.67
2023-03-19T06:34:26.136Z,24.67
2023-03-19T06:36:27.729Z,26.67
2023-03-19T06:38:29.795Z,28.00
2023-03-19T06:40:31.696Z,28.33
2023-03-19T06:42:34.805Z,30.33
2023-03-19T06:44:36.773Z,27.33
2023-03-19T06:46:43.191Z,26.67
2023-03-19T06:48:46.332Z,28.67
2023-03-19T06:50:51.772Z,28.33
2023-03-19T06:52:53.348Z,24.00
2023-03-19T06:54:55.178Z,25.67
2023-03-19T06:56:57.537Z,25.67
2023-03-19T06:58:59.149Z,32.67
2023-03-19T07:01:01.133Z,25.33
2023-03-19T07:03:06.067Z,26.00
2023-03-19T07:05:12.398Z,25.67
2023-03-19T07:07:14.284Z,25.67
2023-03-19T07:09:15.932Z,28.67
2023-03-19T07:11:17.540Z,26.67
2023-03-19T07:13:19.411Z,27.33
2023-03-19T07:15:21.033Z,25.67
2023-03-19T07:17:23.160Z,24.67
2023-03-19T07:19:24.701Z,29.00
2023-03-19T07:21:27.790Z,27.67
2023-03-19T07:23:31.831Z,27.33
2023-03-19T07:25:34.002Z,30.33
2023-03-19T07:27:37.084Z,32.00
2023-03-19T07:29:38.862Z,28.00
2023-03-19T07:31:40.949Z,28.33
2023-03-19T07:33:42.889Z,27.00
2023-03-19T07:35:44.540Z,32.67
2023-03-19T07:37:47.570Z,41.67
2023-03-19T07:39:49.349Z,30.00
2023-03-19T07:41:50.905Z,25.00
2023-03-19T07:43:52.704Z,32.33
2023-03-19T07:45:54.348Z,38.00
2023-03-19T07:47:56.063Z,43.33
2023-03-19T07:49:57.880Z,24.00
2023-03-19T07:51:59.701Z,35.00
2023-03-19T07:54:02.968Z,38.00
2023-03-19T07:56:05.471Z,38.00
2023-03-19T07:58:07.130Z,37.00
2023-03-19T08:00:10.065Z,29.33
2023-03-19T08:02:13.431Z,34.67
2023-03-19T08:04:15.881Z,34.33
2023-03-19T08:06:19.084Z,35.67
2023-03-19T08:08:21.339Z,30.67
2023-03-19T08:10:24.256Z,39.00
2023-03-19T08:12:26.059Z,33.00
2023-03-19T08:14:27.983Z,38.33
2023-03-19T08:16:29.641Z,35.67
2023-03-19T08:18:31.279Z,30.33
2023-03-19T08:20:34.928Z,35.67
2023-03-19T08:22:38.724Z,31.67
2023-03-19T08:24:40.801Z,33.00
2023-03-19T08:26:44.177Z,31.67
2023-03-19T08:28:46.052Z,28.67
2023-03-19T08:30:47.797Z,40.33
2023-03-19T08:32:49.639Z,37.67
2023-03-19T08:34:51.240Z,33.33
2023-03-19T08:36:53.965Z,32.33
2023-03-19T08:38:55.756Z,36.00
2023-03-19T08:40:57.577Z,34.67
2023-03-19T08:43:00.795Z,36.50
2023-03-19T08:45:02.890Z,35.25
2023-03-19T08:47:04.850Z,35.00
2023-03-19T08:49:06.682Z,38.67
2023-03-19T08:51:08.561Z,34.67
2023-03-19T08:53:12.312Z,32.00
2023-03-19T08:55:15.481Z,36.00
2023-03-19T08:57:17.328Z,37.33
2023-03-19T08:59:20.529Z,36.50
2023-03-19T09:01:22.620Z,40.00
2023-03-19T09:03:25.401Z,29.50
2023-03-19T09:05:29.652Z,32.00
2023-03-19T09:07:31.285Z,37.00
2023-03-19T09:09:33.185Z,33.50
2023-03-19T09:11:34.858Z,31.25
2023-03-19T09:13:37.210Z,36.00
2023-03-19T09:15:40.220Z,37.50
2023-03-19T09:17:41.903Z,36.00
2023-03-19T09:19:43.490Z,32.25
2023-03-19T09:21:45.347Z,31.75
2023-03-19T09:23:47.172Z,24.75
2023-03-19T09:25:49.261Z,31.75
2023-03-19T09:27:51.651Z,27.25
2023-03-19T09:29:53.438Z,26.25
2023-03-19T09:31:56.422Z,31.25
2023-03-19T09:33:58.169Z,31.50
2023-03-19T09:35:59.822Z,27.50
2023-03-19T09:38:02.058Z,26.25
2023-03-19T09:40:05.635Z,12.75
2023-03-19T09:42:24.444Z,25.00
2023-03-19T09:44:29.469Z,25.25
2023-03-19T09:46:40.888Z,22.00
2023-03-19T09:48:49.716Z,24.25
2023-03-19T09:50:51.554Z,22.50
2023-03-19T09:53:00.507Z,24.75
2023-03-19T09:55:11.815Z,18.50
2023-03-19T09:57:15.210Z,19.50
2023-03-19T09:59:17.048Z,23.50
2023-03-19T10:01:25.977Z,20.25
2023-03-19T10:03:44.913Z,17.25
2023-03-19T10:05:56.812Z,17.50
2023-03-19T10:08:21.672Z,15.25
2023-03-19T10:10:42.199Z,15.75
2023-03-19T10:12:55.374Z,12.75
2023-03-19T10:15:19.101Z,11.00
2023-03-19T10:17:27.688Z,7.75
2023-03-19T10:19:40.900Z,8.00
2023-03-19T10:21:51.027Z,4.60
2023-03-19T10:23:57.312Z,5.40
2023-03-19T10:26:00.212Z,6.00
2023-03-19T10:28:11.993Z,6.60
2023-03-19T10:30:16.304Z,7.20
2023-03-19T10:32:19.523Z,8.60
2023-03-19T10:34:28.860Z,5.80
2023-03-19T10:36:34.890Z,8.80
2023-03-19T10:38:43.515Z,7.00
2023-03-19T10:40:56.249Z,5.60
2023-03-19T10:43:06.854Z,7.00
2023-03-19T10:45:18.747Z,9.80
2023-03-19T10:47:26.243Z,7.40
2023-03-19T10:49:28.330Z,5.00
2023-03-19T10:51:31.152Z,5.60
2023-03-19T10:53:35.455Z,5.00
2023-03-19T10:55:39.193Z,6.80
2023-03-19T10:57:43.040Z,8.20
2023-03-19T10:59:45.979Z,5.00
2023-03-19T11:01:47.627Z,4.80
2023-03-19T11:03:52.750Z,7.40
2023-03-19T11:06:04.774Z,5.00
2023-03-19T11:08:34.545Z,5.20
2023-03-19T11:10:47.282Z,7.00
2023-03-19T11:12:54.781Z,6.60
2023-03-19T11:15:00.115Z,6.80
2023-03-19T11:17:07.220Z,4.40
2023-03-19T11:19:23.336Z,3.80
2023-03-19T11:21:29.726Z,5.20
2023-03-19T11:23:39.526Z,6.00
2023-03-19T11:25:47.919Z,6.20
2023-03-19T11:27:59.423Z,5.00
2023-03-19T11:30:01.997Z,5.80
2023-03-19T11:32:21.716Z,4.80
2023-03-19T11:34:33.942Z,4.00
2023-03-19T11:36:46.269Z,4.00
2023-03-19T11:38:58.270Z,5.00
2023-03-19T11:41:14.643Z,6.00
2023-03-19T11:43:36.342Z,4.00
2023-03-19T11:45:46.774Z,4.00
2023-03-19T11:48:01.131Z,5.00
2023-03-19T11:50:14.623Z,3.20
2023-03-19T11:52:23.685Z,2.40
2023-03-19T11:54:35.373Z,4.80
2023-03-19T11:56:44.910Z,3.80
2023-03-19T11:59:12.023Z,4.00
2023-03-19T12:01:28.463Z,4.00
2023-03-19T12:03:58.821Z,3.60
2023-03-19T12:06:04.560Z,5.00
2023-03-19T12:08:19.389Z,3.00
2023-03-19T12:10:39.497Z,3.25
2023-03-19T12:12:48.998Z,2.75
2023-03-19T12:15:04.606Z,2.75
2023-03-19T12:17:23.996Z,3.00
2023-03-19T12:19:47.929Z,3.00
2023-03-19T12:22:04.934Z,5.00
2023-03-19T12:24:18.735Z,4.00
2023-03-19T12:26:29.680Z,4.80
2023-03-19T12:28:38.971Z,5.00
2023-03-19T12:30:45.221Z,4.60
2023-03-19T12:33:02.948Z,6.40
2023-03-19T12:35:11.825Z,4.50
2023-03-19T12:37:19.986Z,3.25
2023-03-19T12:39:29.771Z,2.00
2023-03-19T12:41:37.317Z,2.00
2023-03-19T12:43:48.488Z,0.75
2023-03-19T12:45:58.259Z,0.00
2023-03-19T12:48:06.164Z,0.25
2023-03-19T12:50:12.087Z,0.00
2023-03-19T12:52:21.827Z,0.75
2023-03-19T12:54:27.573Z,1.00
2023-03-19T12:56:39.206Z,0.00
2023-03-19T12:58:53.597Z,0.50
2023-03-19T13:01:01.422Z,0.75
2023-03-19T13:03:10.438Z,1.00
2023-03-19T13:05:20.390Z,0.25
2023-03-19T13:07:27.029Z,1.00
2023-03-19T13:09:33.524Z,0.50
2023-03-19T13:11:46.433Z,0.00
2023-03-19T13:13:56.064Z,2.00
2023-03-19T13:16:04.958Z,1.00
2023-03-19T13:18:21.715Z,1.00
2023-03-19T13:20:31.959Z,1.00
2023-03-19T13:22:38.399Z,1.00
2023-03-19T13:24:42.908Z,1.00
2023-03-19T13:26:46.009Z,2.00
2023-03-19T13:29:00.747Z,1.25
2023-03-19T13:31:08.219Z,1.75
2023-03-19T13:33:21.517Z,2.50
2023-03-19T13:35:37.310Z,4.25
2023-03-19T13:37:43.153Z,1.00
2023-03-19T13:39:46.857Z,5.50
2023-03-19T13:41:52.007Z,4.00
2023-03-19T13:43:55.775Z,2.25
2023-03-19T13:46:21.728Z,4.00
2023-03-19T13:48:38.270Z,2.75
2023-03-19T13:50:54.452Z,3.50
2023-03-19T13:53:37.596Z,2.50
2023-03-19T13:55:51.507Z,7.50
2023-03-19T13:57:55.116Z,3.00
2023-03-19T14:00:16.278Z,2.50
2023-03-19T14:02:52.506Z,5.25
2023-03-19T14:05:00.267Z,2.00
2023-03-19T14:07:14.514Z,2.00
2023-03-19T14:09:33.998Z,3.00
2023-03-19T14:11:38.247Z,2.50
2023-03-19T14:13:43.139Z,3.00
2023-03-19T14:15:54.739Z,3.00
2023-03-19T14:18:01.578Z,6.00
2023-03-19T14:20:31.460Z,2.00
2023-03-19T14:22:40.517Z,3.50
2023-03-19T14:24:57.062Z,2.50
2023-03-19T14:27:03.279Z,3.75
2023-03-19T14:29:06.603Z,4.25
2023-03-19T14:31:21.738Z,3.00
2023-03-19T14:33:29.472Z,4.00
2023-03-19T14:35:36.325Z,3.00
2023-03-19T14:37:46.577Z,3.50
2023-03-19T14:39:54.263Z,5.00
2023-03-19T14:42:03.080Z,3.00
2023-03-19T14:44:34.060Z,2.00
2023-03-19T14:46:56.391Z,4.00
2023-03-19T14:49:26.829Z,3.50
2023-03-19T14:51:49.301Z,2.00
2023-03-19T14:53:55.623Z,3.00
2023-03-19T14:56:10.158Z,2.75
2023-03-19T14:58:13.221Z,2.25
2023-03-19T15:00:18.814Z,5.00
2023-03-19T15:02:33.883Z,5.00
2023-03-19T15:04:35.884Z,2.75
2023-03-19T15:06:40.085Z,4.50
2023-03-19T15:08:42.647Z,4.00
2023-03-19T15:10:58.946Z,5.00
2023-03-19T15:13:28.981Z,4.25
2023-03-19T15:15:50.617Z,2.25
2023-03-19T15:18:03.926Z,3.75
2023-03-19T15:20:18.622Z,3.00
2023-03-19T15:22:22.399Z,3.00
2023-03-19T15:24:24.367Z,3.00
2023-03-19T15:26:30.984Z,4.00
2023-03-19T15:28:45.970Z,3.25
2023-03-19T15:31:03.419Z,3.75
2023-03-19T15:33:36.868Z,4.00
2023-03-19T15:35:41.805Z,3.50
2023-03-19T15:37:49.655Z,4.25
2023-03-19T15:39:54.636Z,4.50
2023-03-19T15:41:57.282Z,5.00
2023-03-19T15:43:59.846Z,6.00
2023-03-19T15:46:02.830Z,10.20
2023-03-19T15:48:09.837Z,7.75
2023-03-19T15:50:19.143Z,5.00
2023-03-19T15:52:21.342Z,4.40
2023-03-19T15:54:23.697Z,4.60
2023-03-19T15:56:25.965Z,5.00
2023-03-19T15:58:30.743Z,6.00
2023-03-19T16:00:33.469Z,5.40
2023-03-19T16:02:36.880Z,5.00
2023-03-19T16:05:06.761Z,8.00
2023-03-19T16:07:02.914Z,5.60
2023-03-19T16:09:19.382Z,6.50
2023-03-19T16:11:35.943Z,6.00
2023-03-19T16:13:46.324Z,2.80
2023-03-19T16:15:53.666Z,5.20
2023-03-19T16:18:09.884Z,6.00
2023-03-19T16:20:14.658Z,6.60
2023-03-19T16:22:22.090Z,6.60
2023-03-19T16:24:27.521Z,7.00
2023-03-19T16:26:37.221Z,7.00
2023-03-19T16:28:45.151Z,8.00
2023-03-19T16:30:48.779Z,8.00
2023-03-19T16:33:09.039Z,11.00
2023-03-19T16:35:15.806Z,7.00
2023-03-19T16:37:34.855Z,10.20
2023-03-19T16:39:37.337Z,8.40
2023-03-19T16:41:43.861Z,8.00
2023-03-19T16:43:46.951Z,6.00
2023-03-19T16:46:04.847Z,8.60
2023-03-19T16:48:08.474Z,8.20
2023-03-19T16:50:13.238Z,10.80
2023-03-19T16:52:19.773Z,12.80
2023-03-19T16:54:23.019Z,11.00
2023-03-19T16:56:24.857Z,9.20
2023-03-19T16:58:29.990Z,9.80
2023-03-19T17:00:33.279Z,10.60
2023-03-19T17:02:35.001Z,11.40
2023-03-19T17:04:36.851Z,9.40
2023-03-19T17:06:38.592Z,10.00
2023-03-19T17:08:40.781Z,9.00
2023-03-19T17:10:48.100Z,9.20
2023-03-19T17:12:52.286Z,9.20
2023-03-19T17:14:54.116Z,7.40
2023-03-19T17:16:58.859Z,10.40
2023-03-19T17:19:00.655Z,10.20
2023-03-19T17:21:06.878Z,9.60
2023-03-19T17:23:10.696Z,11.40
2023-03-19T17:25:13.633Z,10.00
2023-03-19T17:27:16.534Z,10.00
2023-03-19T17:29:21.568Z,8.20
2023-03-19T17:31:26.017Z,8.80
2023-03-19T17:33:29.864Z,9.80
2023-03-19T17:35:33.148Z,10.40
2023-03-19T17:37:35.014Z,8.80
2023-03-19T17:39:36.657Z,12.00
2023-03-19T17:41:38.278Z,8.00
2023-03-19T17:43:44.468Z,11.40
2023-03-19T17:45:49.316Z,11.80
2023-03-19T17:47:54.004Z,20.50
2023-03-19T17:49:57.163Z,13.50
2023-03-19T17:51:59.271Z,14.50
2023-03-19T17:54:00.888Z,11.80
2023-03-19T17:56:02.922Z,8.00
2023-03-19T17:58:04.623Z,5.20
2023-03-19T18:00:10.699Z,9.20
2023-03-19T18:02:27.950Z,7.25
2023-03-19T18:04:29.743Z,7.25
2023-03-19T18:06:35.244Z,7.00
2023-03-19T18:08:37.059Z,7.25
2023-03-19T18:10:41.005Z,9.25
2023-03-19T18:12:43.502Z,8.25
2023-03-19T18:14:45.380Z,7.25
2023-03-19T18:16:51.106Z,7.00
2023-03-19T18:18:55.600Z,8.75
2023-03-19T18:20:59.512Z,8.50
2023-03-19T18:23:03.159Z,9.25
2023-03-19T18:25:06.029Z,7.75
2023-03-19T18:27:08.240Z,8.25
2023-03-19T18:29:09.855Z,6.00
2023-03-19T18:31:16.019Z,8.75
2023-03-19T18:33:25.848Z,7.50
2023-03-19T18:35:30.185Z,8.75
2023-03-19T18:37:34.549Z,6.50
2023-03-19T18:39:36.163Z,8.00
2023-03-19T18:41:37.775Z,8.75
2023-03-19T18:43:39.749Z,9.25
2023-03-19T18:45:42.383Z,9.75
2023-03-19T18:47:46.316Z,10.25
2023-03-19T18:49:49.321Z,8.25
2023-03-19T18:52:02.048Z,11.00
2023-03-19T18:54:04.502Z,12.00
2023-03-19T18:56:20.211Z,10.75
2023-03-19T18:58:24.713Z,9.00
2023-03-19T19:00:29.774Z,8.25
2023-03-19T19:02:34.216Z,9.00
2023-03-19T19:04:35.818Z,11.00
2023-03-19T19:06:47.201Z,13.25
2023-03-19T19:08:49.799Z,11.00
2023-03-19T19:10:54.138Z,11.25
2023-03-19T19:12:56.612Z,10.75
2023-03-19T19:14:59.206Z,11.25
2023-03-19T19:17:01.082Z,9.75
2023-03-19T19:19:03.515Z,10.50
2023-03-19T19:21:05.540Z,12.00
2023-03-19T19:23:09.777Z,10.00
2023-03-19T19:25:15.899Z,8.75
2023-03-19T19:27:20.451Z,18.50
2023-03-19T19:29:24.791Z,22.75
2023-03-19T19:31:29.007Z,21.00
2023-03-19T19:33:34.641Z,32.00
2023-03-19T19:35:36.468Z,20.25
2023-03-19T19:37:38.288Z,24.50
2023-03-19T19:39:41.390Z,27.00
2023-03-19T19:41:43.510Z,15.25
2023-03-19T19:43:46.427Z,21.75
2023-03-19T19:45:50.126Z,14.25
2023-03-19T19:47:52.220Z,16.25
2023-03-19T19:49:53.983Z,17.75
2023-03-19T19:51:56.143Z,13.75
2023-03-19T19:53:57.748Z,23.25
2023-03-19T19:56:06.713Z,13.75
2023-03-19T19:58:18.228Z,19.00
2023-03-19T20:00:23.111Z,8.50
2023-03-19T20:02:27.189Z,20.75
2023-03-19T20:04:30.580Z,18.75
2023-03-19T20:06:32.286Z,67.00
2023-03-19T20:08:34.292Z,24.75
2023-03-19T20:10:37.852Z,17.25
2023-03-19T20:12:49.218Z,18.50
2023-03-19T20:14:52.350Z,17.75
2023-03-19T20:16:54.456Z,21.00
2023-03-19T20:18:58.392Z,18.00
2023-03-19T20:21:02.038Z,20.00
2023-03-19T20:23:03.710Z,15.25
2023-03-19T20:25:07.265Z,14.50
2023-03-19T20:27:17.705Z,15.25
2023-03-19T20:29:20.826Z,16.00
2023-03-19T20:31:26.335Z,20.00
2023-03-19T20:33:29.367Z,13.75
2023-03-19T20:35:33.192Z,12.00
2023-03-19T20:37:34.987Z,10.00
2023-03-19T20:39:36.888Z,7.50
2023-03-19T20:41:38.877Z,10.75
2023-03-19T20:43:42.514Z,13.50
2023-03-19T20:45:45.872Z,11.00
2023-03-19T20:47:49.436Z,9.50
2023-03-19T20:49:51.314Z,16.25
2023-03-19T20:51:52.948Z,10.50
2023-03-19T20:53:54.658Z,26.75
2023-03-19T20:55:56.678Z,15.50
2023-03-19T20:57:58.926Z,16.25
2023-03-19T21:00:03.039Z,7.00
2023-03-19T21:02:16.199Z,12.75
2023-03-19T21:04:19.259Z,14.00
2023-03-19T21:06:23.031Z,11.50
2023-03-19T21:08:31.665Z,15.00
2023-03-19T21:10:38.179Z,18.50
2023-03-19T21:12:40.095Z,14.50
2023-03-19T21:14:41.922Z,15.00
2023-03-19T21:16:43.978Z,11.25
2023-03-19T21:18:47.498Z,18.25
2023-03-19T21:20:52.941Z,12.25
2023-03-19T21:23:01.175Z,17.50
2023-03-19T21:25:08.444Z,14.00
2023-03-19T21:27:18.353Z,10.75
2023-03-19T21:29:25.694Z,10.00
2023-03-19T21:31:28.555Z,12.50
2023-03-19T21:33:34.473Z,11.00
2023-03-19T21:35:38.101Z,11.25
2023-03-19T21:37:41.559Z,8.75
2023-03-19T21:39:46.693Z,13.25
2023-03-19T21:41:49.142Z,10.75
2023-03-19T21:43:54.929Z,10.25
2023-03-19T21:45:59.452Z,9.25
2023-03-19T21:48:21.569Z,12.00
2023-03-19T21:50:23.331Z,12.75
2023-03-19T21:52:26.339Z,11.25
2023-03-19T21:54:28.050Z,9.75
2023-03-19T21:56:34.265Z,10.25
2023-03-19T21:58:36.798Z,9.75
2023-03-19T22:00:39.025Z,10.50
2023-03-19T22:02:42.300Z,10.75
2023-03-19T22:04:44.082Z,9.75
2023-03-19T22:06:45.779Z,14.75
2023-03-19T22:08:48.862Z,10.50
2023-03-19T22:10:55.831Z,14.25
2023-03-19T22:12:57.704Z,11.00
2023-03-19T22:14:59.484Z,9.50
2023-03-19T22:17:01.125Z,9.50
2023-03-19T22:19:02.916Z,12.50
2023-03-19T22:21:05.187Z,6.50
2023-03-19T22:23:07.152Z,12.75
2023-03-19T22:25:11.720Z,10.00
2023-03-19T22:27:16.395Z,10.25
2023-03-19T22:29:21.261Z,8.00
2023-03-19T22:31:24.117Z,9.50
2023-03-19T22:33:30.627Z,10.75
2023-03-19T22:35:32.423Z,12.75
2023-03-19T22:37:34.025Z,9.50
2023-03-19T22:39:35.921Z,8.75
2023-03-19T22:41:41.808Z,8.00
2023-03-19T22:43:45.322Z,15.00
2023-03-19T22:45:55.055Z,9.00
2023-03-19T22:47:59.952Z,14.50
2023-03-19T22:50:01.549Z,12.00
2023-03-19T22:52:05.181Z,12.00
2023-03-19T22:54:08.071Z,8.00
2023-03-19T22:56:11.892Z,9.25
2023-03-19T22:58:16.004Z,13.00
2023-03-19T23:00:21.648Z,13.25
2023-03-19T23:02:26.980Z,12.25
2023-03-19T23:04:32.669Z,13.00
2023-03-19T23:06:34.401Z,12.25
2023-03-19T23:08:36.105Z,11.50
2023-03-19T23:10:38.528Z,11.75
2023-03-19T23:12:40.227Z,11.00
2023-03-19T23:14:43.208Z,12.00
2023-03-19T23:16:47.302Z,11.00
2023-03-19T23:18:49.787Z,11.75
2023-03-19T23:20:51.634Z,12.00
2023-03-19T23:22:54.327Z,12.00
2023-03-19T23:24:56.635Z,11.75
2023-03-19T23:27:00.284Z,11.00
2023-03-19T23:29:04.696Z,10.75
2023-03-19T23:31:09.547Z,11.75
2023-03-19T23:33:11.471Z,12.25
2023-03-19T23:35:16.005Z,10.50
2023-03-19T23:37:18.109Z,12.25
2023-03-19T23:39:20.320Z,7.00
2023-03-19T23:41:26.813Z,13.50
2023-03-19T23:43:29.080Z,12.75
2023-03-19T23:45:38.591Z,11.25
2023-03-19T23:47:41.680Z,13.25
2023-03-19T23:49:43.869Z,14.75
2023-03-19T23:51:45.501Z,11.75
2023-03-19T23:53:47.448Z,15.75
2023-03-19T23:55:51.127Z,13.25
2023-03-19T23:57:54.060Z,11.50
2023-03-19T23:59:55.804Z,11.25
